Time;durP1;ratioP1;P1;durP2;ratioP2;P2;SDS_P1;SDS_P2;PMS_P1;PMS_P2;Temp;Humidity;BMP_temperature;BMP_pressure;BME280_temperature;BME280_humidity;BME280_pressure;Samples;Min_cycle;Max_cycle;Signal;HPM_P1;HPM_P2
2024/01/06 00:01:38;;;;;;;19.33;10.00;;;;;;;5.88;100.00;100239.09;4976356;28;20022;-85
2024/01/06 00:04:04;;;;;;;18.47;9.03;;;;;;;5.88;100.00;100249.41;4976984;28;20365;-86
2024/01/06 00:06:32;;;;;;;18.03;9.10;;;;;;;5.89;100.00;100253.69;4976638;28;20114;-85
2024/01/06 00:08:57;;;;;;;16.77;7.93;;;;;;;5.85;100.00;100250.28;4976090;28;20019;-85
2024/01/06 00:11:23;;;;;;;19.17;9.00;;;;;;;5.84;100.00;100263.19;4977021;28;20026;-84
2024/01/06 00:13:49;;;;;;;16.48;7.97;;;;;;;5.80;100.00;100261.47;4976943;28;20031;-85
2024/01/06 00:16:18;;;;;;;19.00;8.90;;;;;;;5.79;100.00;100276.06;4975617;28;20026;-85
2024/01/06 00:18:44;;;;;;;19.02;8.88;;;;;;;5.77;100.00;100276.94;4991817;28;20026;-85
2024/01/06 00:21:09;;;;;;;18.20;8.33;;;;;;;5.74;100.00;100276.97;4995617;28;20121;-85
2024/01/06 00:23:35;;;;;;;17.48;7.72;;;;;;;5.70;100.00;100283.81;4994859;28;20030;-85
2024/01/06 00:26:00;;;;;;;17.33;7.50;;;;;;;5.69;100.00;100285.56;4995835;28;20117;-85
2024/01/06 00:28:28;;;;;;;17.17;7.40;;;;;;;5.68;100.00;100288.97;4995896;28;20026;-85
2024/01/06 00:30:53;;;;;;;17.52;8.02;;;;;;;5.67;100.00;100292.41;4994760;28;20041;-85
2024/01/06 00:33:19;;;;;;;15.27;7.13;;;;;;;5.65;100.00;100291.56;4995623;28;20023;-85
2024/01/06 00:35:46;;;;;;;20.13;9.43;;;;;;;5.60;100.00;100289.88;4994458;28;20030;-85
2024/01/06 00:38:12;;;;;;;19.27;8.93;;;;;;;5.60;100.00;100303.63;4995521;28;20054;-85
2024/01/06 00:40:37;;;;;;;24.23;12.23;;;;;;;5.54;100.00;100299.34;4995499;28;20428;-85
2024/01/06 00:43:02;;;;;;;24.42;12.98;;;;;;;5.47;100.00;100295.06;4994971;28;20101;-85
2024/01/06 00:45:33;;;;;;;21.95;11.23;;;;;;;5.49;100.00;100298.50;4995222;28;20391;-85
2024/01/06 00:47:58;;;;;;;22.40;10.95;;;;;;;5.46;100.00;100300.22;4983913;28;20089;-85
2024/01/06 00:50:25;;;;;;;23.83;11.97;;;;;;;5.39;100.00;100292.53;4975447;28;20431;-85
2024/01/06 00:52:56;;;;;;;22.58;11.35;;;;;;;5.40;100.00;100298.53;4975839;28;20027;-85
2024/01/06 00:56:18;;;;;;;22.50;10.57;;;;;;;5.39;100.00;100307.97;4976135;28;20041;-84
2024/01/06 01:00:52;;;;;;;20.52;9.38;;;;;;;5.34;100.00;100293.41;4982432;23;20055;-85
2024/01/06 01:03:17;;;;;;;20.98;9.88;;;;;;;5.32;100.00;100307.97;4983344;23;20129;-85
2024/01/06 01:05:42;;;;;;;21.13;10.10;;;;;;;5.34;100.00;100307.09;4974900;28;20464;-84
2024/01/06 01:08:08;;;;;;;20.93;9.97;;;;;;;5.29;100.00;100307.97;4976049;28;20030;-85
2024/01/06 01:10:33;;;;;;;22.55;10.45;;;;;;;5.28;100.00;100306.25;4975837;28;20030;-85
2024/01/06 01:12:58;;;;;;;20.85;9.60;;;;;;;5.28;100.00;100308.84;4975110;28;20442;-85
2024/01/06 01:15:24;;;;;;;19.17;8.40;;;;;;;5.31;100.00;100316.56;4974785;28;20059;-85
2024/01/06 01:17:49;;;;;;;18.07;7.70;;;;;;;5.31;100.00;100316.56;4964385;28;20034;-84
2024/01/06 01:20:14;;;;;;;18.63;8.40;;;;;;;5.31;100.00;100319.13;4956437;28;20051;-85
2024/01/06 01:22:39;;;;;;;21.20;9.73;;;;;;;5.24;100.00;100313.97;4975411;23;20098;-84
2024/01/06 01:25:07;;;;;;;20.67;9.40;;;;;;;5.28;100.00;100326.84;4994352;28;20038;-85
2024/01/06 01:27:33;;;;;;;19.58;8.73;;;;;;;5.25;100.00;100326.00;4995004;28;20026;-85
2024/01/06 01:29:59;;;;;;;18.10;7.63;;;;;;;5.24;100.00;100334.56;4994543;28;20037;-85
2024/01/06 01:32:24;;;;;;;20.55;9.48;;;;;;;5.21;100.00;100328.56;4993995;28;20765;-85
2024/01/06 01:34:49;;;;;;;24.63;13.10;;;;;;;5.11;100.00;100338.03;4994459;28;20526;-85
2024/01/06 01:37:15;;;;;;;24.35;12.25;;;;;;;5.08;100.00;100338.03;4994126;28;20023;-85
2024/01/06 01:39:40;;;;;;;23.33;11.68;;;;;;;5.01;100.00;100347.47;4993262;28;20030;-85
2024/01/06 01:42:06;;;;;;;23.53;11.67;;;;;;;5.01;100.00;100346.63;4994369;28;20033;-85
2024/01/06 01:44:31;;;;;;;23.02;10.70;;;;;;;4.96;100.00;100346.59;4994010;28;20034;-85
2024/01/06 01:46:57;;;;;;;21.30;10.43;;;;;;;4.93;100.00;100349.19;4993816;28;20050;-85
2024/01/06 01:49:22;;;;;;;20.73;9.27;;;;;;;4.89;100.00;100352.59;4994976;28;20121;-85
2024/01/06 01:51:48;;;;;;;22.00;9.93;;;;;;;4.90;100.00;100357.72;4994440;28;20026;-85
2024/01/06 01:54:14;;;;;;;23.17;11.20;;;;;;;4.86;100.00;100363.75;4993824;28;20022;-85
2024/01/06 01:56:41;;;;;;;22.47;10.50;;;;;;;4.85;100.00;100366.31;4993971;28;20487;-85
2024/01/06 01:59:11;;;;;;;;;;;;;;;4.79;100.00;100374.88;4994661;28;20027;-85
2024/01/06 02:01:36;;;;;;;24.10;11.65;;;;;;;4.62;100.00;100362.88;4993568;28;19914;-84
2024/01/06 02:04:02;;;;;;;22.05;10.55;;;;;;;4.70;100.00;100375.75;4994477;28;20490;-84
2024/01/06 02:06:27;;;;;;;23.73;12.25;;;;;;;4.65;100.00;100372.28;4993897;28;20109;-85
2024/01/06 02:08:53;;;;;;;22.42;10.65;;;;;;;4.68;100.00;100376.56;4993204;28;20033;-85
2024/01/06 02:11:18;;;;;;;23.20;11.07;;;;;;;4.62;100.00;100374.84;4993965;28;20041;-85
2024/01/06 02:13:44;;;;;;;23.27;10.80;;;;;;;4.65;100.00;100380.00;4993660;28;20285;-84
2024/01/06 02:16:09;;;;;;;22.57;11.30;;;;;;;4.61;100.00;100383.44;4993385;28;20026;-85
2024/01/06 02:18:34;;;;;;;22.70;11.60;;;;;;;4.55;100.00;100380.84;4993669;28;20100;-85
2024/01/06 02:21:01;;;;;;;22.17;10.40;;;;;;;4.51;100.00;100376.53;4993555;28;20498;-84
2024/01/06 02:23:27;;;;;;;;;;;;;;;4.57;100.00;100400.53;4994137;28;20034;-85
2024/01/06 02:25:52;;;;;;;22.67;10.77;;;;;;;4.46;100.00;100390.25;4993708;28;19920;-85
2024/01/06 02:28:18;;;;;;;21.38;10.32;;;;;;;4.45;100.00;100395.38;4992728;28;20369;-84
2024/01/06 02:30:43;;;;;;;21.55;10.30;;;;;;;4.46;100.00;100402.22;4993862;28;20032;-85
2024/01/06 02:33:09;;;;;;;22.38;10.77;;;;;;;4.42;100.00;100411.66;4994014;28;20502;-85
2024/01/06 02:35:34;;;;;;;20.77;10.13;;;;;;;4.42;100.00;100414.22;4992501;28;20031;-85
2024/01/06 02:38:00;;;;;;;22.10;10.60;;;;;;;4.30;100.00;100411.59;4993698;28;20109;-85
2024/01/06 02:40:26;;;;;;;21.98;11.07;;;;;;;4.34;100.00;100426.19;4993565;28;20019;-85
2024/01/06 02:42:51;;;;;;;21.70;10.35;;;;;;;4.34;100.00;100426.19;4993675;28;20030;-85
2024/01/06 02:45:19;;;;;;;20.37;9.10;;;;;;;4.36;100.00;100426.19;4997738;28;20113;-84
2024/01/06 02:47:44;;;;;;;22.10;10.52;;;;;;;4.29;100.00;100428.75;4996931;28;20046;-85
2024/01/06 02:50:10;;;;;;;22.00;10.37;;;;;;;4.27;100.00;100421.88;4997056;28;20023;-85
2024/01/06 02:52:35;;;;;;;21.23;10.07;;;;;;;4.30;100.00;100435.59;4997269;28;20471;-85
2024/01/06 02:55:06;;;;;;;21.80;10.45;;;;;;;4.19;100.00;100432.13;4996923;28;20019;-84
2024/01/06 02:57:38;;;;;;;20.25;9.98;;;;;;;4.05;100.00;100426.94;4996929;28;20034;-85
2024/01/06 03:00:03;;;;;;;20.98;9.93;;;;;;;4.10;100.00;100453.47;4997490;28;20061;-84
2024/01/06 03:02:42;;;;;;;21.10;9.80;;;;;;;4.01;100.00;100458.56;4997229;28;20069;-85
2024/01/06 03:05:19;;;;;;;21.45;9.30;;;;;;;3.91;100.00;100462.78;4996233;28;20035;-85
2024/01/06 03:08:13;;;;;;;19.05;8.68;;;;;;;3.89;100.00;100461.06;4996501;28;20043;-85
2024/01/06 03:10:51;;;;;;;19.30;8.90;;;;;;;3.81;100.00;100466.16;4994867;28;20038;-84
2024/01/06 03:13:45;;;;;;;18.20;8.32;;;;;;;3.83;100.00;100480.69;4997269;28;20037;-85
2024/01/06 03:16:12;;;;;;;16.90;7.30;;;;;;;3.74;100.00;100461.84;4987984;28;20030;-85
2024/01/06 03:18:40;;;;;;;15.88;6.65;;;;;;;3.72;100.00;100469.50;4996073;28;20037;-85
2024/01/06 03:24:13;;;;;;;13.43;5.90;;;;;;;3.73;100.00;100485.78;4981060;28;20185;-84
2024/01/06 03:26:38;;;;;;;13.50;5.95;;;;;;;3.71;100.00;100480.66;4995446;28;20109;-84
2024/01/06 03:29:03;;;;;;;13.45;5.50;;;;;;;3.77;100.00;100495.22;4997335;28;20166;-85
2024/01/06 03:31:31;;;;;;;10.70;5.35;;;;;;;3.80;100.00;100497.78;4995584;28;20030;-84
2024/01/06 03:34:05;;;;;;;12.18;5.90;;;;;;;3.68;100.00;100486.59;4996809;28;20029;-85
2024/01/06 03:36:40;;;;;;;12.70;5.68;;;;;;;3.75;100.00;100504.63;4996497;28;20034;-84
2024/01/06 03:39:13;;;;;;;11.05;5.28;;;;;;;3.77;100.00;100506.34;4996135;28;20026;-85
2024/01/06 03:41:38;;;;;;;11.95;5.57;;;;;;;3.76;100.00;100508.91;4996113;28;20019;-85
2024/01/06 03:44:03;;;;;;;14.38;6.25;;;;;;;3.74;100.00;100516.59;4996495;28;20073;-85
2024/01/06 03:46:29;;;;;;;12.32;6.00;;;;;;;3.75;100.00;100517.47;4995838;28;20035;-84
2024/01/06 03:48:54;;;;;;;12.50;6.13;;;;;;;3.75;100.00;100525.16;4995975;28;20026;-84
2024/01/06 03:51:21;;;;;;;12.20;5.85;;;;;;;3.77;100.00;100521.75;4996521;28;20026;-85
2024/01/06 03:53:47;;;;;;;11.98;5.93;;;;;;;3.76;100.00;100529.44;4994414;28;20024;-84
2024/01/06 03:56:13;;;;;;;12.77;5.88;;;;;;;3.81;100.00;100538.03;4996127;28;20375;-85
2024/01/06 03:58:38;;;;;;;15.40;7.18;;;;;;;3.71;100.00;100527.69;4994825;28;20038;-85
2024/01/06 04:01:03;;;;;;;14.40;7.18;;;;;;;3.71;100.00;100529.41;4995505;28;20479;-85
2024/01/06 04:03:31;;;;;;;13.57;6.72;;;;;;;3.67;100.00;100537.94;4995932;28;20029;-85
2024/01/06 04:05:57;;;;;;;15.20;6.97;;;;;;;3.58;100.00;100528.44;4996149;28;20498;-84
2024/01/06 04:08:22;;;;;;;14.90;7.47;;;;;;;3.55;100.00;100536.97;4995417;28;20053;-85
2024/01/06 04:10:50;;;;;;;14.05;6.85;;;;;;;3.59;100.00;100537.84;4995558;28;20558;-84
2024/01/06 04:13:15;;;;;;;13.93;6.60;;;;;;;3.62;100.00;100542.16;4996294;28;20077;-85
2024/01/06 04:15:41;;;;;;;15.93;7.43;;;;;;;3.59;100.00;100539.56;4994939;28;20030;-85
2024/01/06 04:18:06;;;;;;;16.52;7.95;;;;;;;3.57;100.00;100543.84;4995480;28;20483;-85
2024/01/06 04:20:32;;;;;;;17.03;7.80;;;;;;;3.56;100.00;100542.97;4995520;28;20037;-85
2024/01/06 04:22:58;;;;;;;17.27;8.27;;;;;;;3.52;100.00;100548.94;4995128;28;20081;-84
2024/01/06 04:25:24;;;;;;;18.15;9.02;;;;;;;3.48;100.00;100552.28;4996041;28;20070;-85
2024/01/06 04:27:49;;;;;;;18.10;8.13;;;;;;;3.39;100.00;100546.25;4994879;28;20101;-84
2024/01/06 04:30:17;;;;;;;16.67;7.72;;;;;;;3.43;100.00;100557.38;4995942;28;20026;-85
2024/01/06 04:32:42;;;;;;;16.92;7.97;;;;;;;3.32;100.00;100549.56;4995640;28;20420;-85
2024/01/06 04:35:08;;;;;;;16.90;8.35;;;;;;;3.35;100.00;100553.91;4995181;28;20026;-84
2024/01/06 04:37:33;;;;;;;15.35;6.72;;;;;;;3.40;100.00;100557.34;4995439;28;20072;-85
2024/01/06 04:39:59;;;;;;;17.25;8.23;;;;;;;3.31;100.00;100558.16;4995837;28;20154;-85
2024/01/06 04:42:24;;;;;;;16.75;7.60;;;;;;;3.33;100.00;100559.00;4994684;28;20022;-85
2024/01/06 04:44:50;;;;;;;15.95;7.30;;;;;;;3.41;100.00;100566.78;4995327;28;20026;-85
2024/01/06 04:47:15;;;;;;;12.52;6.22;;;;;;;3.43;100.00;100567.66;5002088;23;20062;-85
2024/01/06 04:49:41;;;;;;;11.32;5.50;;;;;;;3.49;100.00;100572.81;4994693;28;20076;-85
2024/01/06 04:52:06;;;;;;;13.73;6.88;;;;;;;3.49;100.00;100577.97;4995254;28;20041;-85
2024/01/06 04:54:32;;;;;;;12.55;5.72;;;;;;;3.50;100.00;100579.69;4995053;28;20094;-85
2024/01/06 04:57:00;;;;;;;13.15;6.40;;;;;;;3.53;100.00;100586.56;4994437;28;20026;-84
2024/01/06 04:59:25;;;;;;;14.30;6.80;;;;;;;3.52;100.00;100577.16;4995516;28;20019;-85
2024/01/06 05:01:54;;;;;;;14.55;6.65;;;;;;;3.47;100.00;100584.81;4995038;28;20468;-85
2024/01/06 05:04:19;;;;;;;14.27;6.93;;;;;;;3.45;100.00;100590.75;4994617;28;20073;-84
2024/01/06 05:06:44;;;;;;;14.15;6.80;;;;;;;3.48;100.00;100591.66;4993879;28;20038;-84
2024/01/06 05:09:10;;;;;;;11.57;5.80;;;;;;;3.52;100.00;100597.69;4994984;28;20077;-84
2024/01/06 05:11:35;;;;;;;12.77;5.95;;;;;;;3.51;100.00;100593.38;4994065;28;20048;-86
2024/01/06 05:14:00;;;;;;;12.30;5.70;;;;;;;3.50;100.00;100592.50;4995035;28;20084;-85
2024/01/06 05:16:26;;;;;;;11.32;5.20;;;;;;;3.51;100.00;100596.81;4993403;28;20117;-84
2024/01/06 05:18:51;;;;;;;11.00;5.20;;;;;;;3.43;100.00;100588.19;4993524;28;20057;-85
2024/01/06 05:21:16;;;;;;;10.20;5.30;;;;;;;3.53;100.00;100605.38;4995043;28;20100;-85
2024/01/06 05:23:42;;;;;;;10.02;5.15;;;;;;;3.50;100.00;100613.03;4994328;28;20026;-85
2024/01/06 05:26:07;;;;;;;11.95;5.50;;;;;;;3.54;100.00;100616.53;4994082;28;20034;-85
2024/01/06 05:28:32;;;;;;;10.23;4.97;;;;;;;3.52;100.00;100613.91;4994640;28;20030;-85
2024/01/06 05:30:58;;;;;;;10.90;5.57;;;;;;;3.49;100.00;100616.44;4993923;28;20053;-84
2024/01/06 05:33:23;;;;;;;9.95;5.18;;;;;;;3.47;100.00;100618.16;4994592;28;20065;-85
2024/01/06 05:35:48;;;;;;;9.48;5.35;;;;;;;3.48;100.00;100619.88;4994272;28;20109;-85
2024/01/06 05:38:14;;;;;;;13.15;6.25;;;;;;;3.32;100.00;100618.84;4993993;28;20033;-85
2024/01/06 05:40:39;;;;;;;11.77;5.55;;;;;;;3.39;100.00;100630.03;4994872;28;20089;-85
2024/01/06 05:43:04;;;;;;;14.95;6.43;;;;;;;3.32;100.00;100623.97;4994814;28;20022;-85
2024/01/06 05:45:30;;;;;;;14.27;6.18;;;;;;;3.31;100.00;100635.09;4994125;28;20442;-85
2024/01/06 05:47:57;;;;;;;11.63;5.70;;;;;;;3.28;100.00;100629.94;4993664;28;20080;-85
2024/01/06 05:50:23;;;;;;;12.27;5.78;;;;;;;3.32;100.00;100638.50;4993719;28;20072;-85
2024/01/06 05:52:48;;;;;;;12.98;5.82;;;;;;;3.26;100.00;100635.88;4993400;28;20027;-84
2024/01/06 05:55:17;;;;;;;12.68;5.82;;;;;;;3.28;100.00;100641.88;4993945;28;20022;-84
2024/01/06 05:57:42;;;;;;;11.10;5.18;;;;;;;3.35;100.00;100648.81;4993851;28;20077;-85
2024/01/06 06:00:08;;;;;;;11.05;5.20;;;;;;;3.36;100.00;100653.09;4993067;28;20034;-85
2024/01/06 06:02:34;;;;;;;11.77;5.00;;;;;;;3.35;100.00;100656.50;4994179;28;20042;-85
2024/01/06 06:05:00;;;;;;;13.75;5.85;;;;;;;3.35;100.00;100662.50;4993893;28;20042;-85
2024/01/06 06:07:25;;;;;;;13.68;6.00;;;;;;;3.36;100.00;100653.94;4993621;28;20149;-85
2024/01/06 06:09:52;;;;;;;14.90;6.57;;;;;;;3.28;100.00;100663.28;4993630;28;20486;-84
2024/01/06 06:12:18;;;;;;;15.65;6.50;;;;;;;3.22;100.00;100660.63;4992459;28;20026;-84
2024/01/06 06:14:43;;;;;;;14.35;6.40;;;;;;;3.21;100.00;100667.47;4993301;28;20030;-85
2024/01/06 06:17:08;;;;;;;16.27;7.25;;;;;;;3.17;100.00;100677.66;4993373;28;20522;-85
2024/01/06 06:19:37;;;;;;;15.07;6.35;;;;;;;3.16;100.00;100681.06;4993543;28;20036;-85
2024/01/06 06:22:02;;;;;;;16.13;6.60;;;;;;;3.10;100.00;100681.84;4993395;28;20102;-85
2024/01/06 06:24:27;;;;;;;17.20;7.40;;;;;;;3.07;100.00;100676.69;4994015;28;20058;-84
2024/01/06 06:26:58;;;;;;;13.57;6.10;;;;;;;3.10;100.00;100699.81;4993421;28;20026;-84
2024/01/06 06:29:24;;;;;;;12.88;5.78;;;;;;;3.08;100.00;100704.94;4993111;28;20025;-84
2024/01/06 06:31:49;;;;;;;11.10;5.50;;;;;;;3.03;100.00;100709.13;4993365;28;20034;-84
2024/01/06 06:34:17;;;;;;;11.73;5.55;;;;;;;3.03;100.00;100698.00;4993068;28;20026;-83
2024/01/06 06:36:46;;;;;;;12.40;5.25;;;;;;;3.03;100.00;100704.00;4993551;28;20040;-84
2024/01/06 06:39:11;;;;;;;11.40;5.28;;;;;;;3.03;100.00;100701.41;4993801;28;20057;-84
2024/01/06 06:41:36;;;;;;;11.93;5.85;;;;;;;3.03;100.00;100701.41;4992858;28;20454;-84
2024/01/06 06:44:10;;;;;;;11.87;5.57;;;;;;;3.09;100.00;100713.47;4993451;28;20475;-84
2024/01/06 06:46:36;;;;;;;12.40;5.57;;;;;;;3.13;100.00;100716.94;4993036;28;20029;-84
2024/01/06 06:49:02;;;;;;;13.15;6.07;;;;;;;3.10;100.00;100715.19;4992606;28;20105;-84
2024/01/06 06:51:27;;;;;;;16.00;7.35;;;;;;;3.08;100.00;100722.88;4994103;28;20026;-84
2024/01/06 06:53:52;;;;;;;14.82;6.75;;;;;;;3.05;100.00;100720.25;4993191;28;20030;-84
2024/01/06 06:56:18;;;;;;;16.15;7.63;;;;;;;3.04;100.00;100738.19;4992876;28;20026;-85
2024/01/06 06:58:43;;;;;;;14.25;6.45;;;;;;;3.03;100.00;100733.91;4993538;28;20478;-84
2024/01/06 07:01:08;;;;;;;16.10;7.40;;;;;;;3.00;100.00;100750.09;4993658;28;20029;-84
2024/01/06 07:03:34;;;;;;;17.23;7.90;;;;;;;3.01;100.00;100763.78;4992673;28;20022;-84
2024/01/06 07:05:59;;;;;;;17.58;7.95;;;;;;;2.95;100.00;100764.56;4993870;28;20068;-84
2024/01/06 07:08:27;;;;;;;17.95;8.05;;;;;;;2.93;100.00;100768.78;4993067;28;20471;-85
2024/01/06 07:10:52;;;;;;;17.05;7.28;;;;;;;2.92;100.00;100778.19;5006721;23;20101;-84
2024/01/06 07:13:18;;;;;;;18.92;8.82;;;;;;;2.85;100.00;100778.94;4993416;28;20027;-84
2024/01/06 07:15:43;;;;;;;18.10;8.02;;;;;;;2.85;100.00;100784.06;4993304;28;20019;-84
2024/01/06 07:18:09;;;;;;;18.83;8.48;;;;;;;2.78;100.00;100784.81;4992566;28;20489;-84
2024/01/06 07:20:34;;;;;;;18.27;8.40;;;;;;;2.79;100.00;100786.53;4992947;28;20560;-84
2024/01/06 07:22:59;;;;;;;18.27;8.20;;;;;;;2.77;100.00;100778.81;4993467;28;20022;-84
2024/01/06 07:25:25;;;;;;;20.08;9.10;;;;;;;2.80;100.00;100789.94;4992517;28;20030;-84
2024/01/06 07:27:50;;;;;;;18.45;8.20;;;;;;;2.79;100.00;100794.22;4992819;28;20475;-84
2024/01/06 07:30:16;;;;;;;18.90;8.13;;;;;;;2.82;100.00;100796.81;4996212;28;20081;-84
2024/01/06 07:32:42;;;;;;;16.52;7.13;;;;;;;2.84;100.00;100790.00;4995971;28;20452;-83
2024/01/06 07:35:07;;;;;;;17.38;7.80;;;;;;;2.84;100.00;100790.00;4996889;28;20046;-83
2024/01/06 07:37:33;;;;;;;17.33;7.70;;;;;;;2.83;100.00;100793.41;4995840;28;20023;-83
2024/01/06 07:40:07;;;;;;;17.35;7.88;;;;;;;2.84;100.00;100795.16;5075565;23;20081;-83
2024/01/06 07:42:42;;;;;;;18.23;8.00;;;;;;;2.84;100.00;100795.16;4976820;28;20122;-83
2024/01/06 07:45:08;;;;;;;17.33;7.90;;;;;;;2.80;100.00;100790.81;4976555;28;20391;-83
2024/01/06 07:47:33;;;;;;;20.95;9.18;;;;;;;2.84;100.00;100814.81;4987688;23;20055;-85
2024/01/06 07:50:01;;;;;;;19.33;9.02;;;;;;;2.73;100.00;100809.50;4977025;28;20031;-83
2024/01/06 07:52:26;;;;;;;19.27;9.18;;;;;;;2.73;100.00;100820.63;4976685;28;20081;-83
2024/01/06 07:54:52;;;;;;;19.60;8.50;;;;;;;2.73;100.00;100817.19;4977012;28;20027;-83
2024/01/06 07:57:17;;;;;;;19.02;8.73;;;;;;;2.71;100.00;100822.28;4970015;28;20426;-83
2024/01/06 07:59:42;;;;;;;19.40;8.65;;;;;;;2.71;100.00;100818.84;4976068;28;20046;-83
2024/01/06 08:02:08;;;;;;;18.85;8.90;;;;;;;2.61;100.00;100834.06;4975852;28;20180;-84
2024/01/06 08:04:34;;;;;;;20.17;9.40;;;;;;;2.67;100.00;100837.59;4959414;28;20551;-84
2024/01/06 08:06:59;;;;;;;19.38;9.07;;;;;;;2.63;100.00;100829.00;4956657;28;20115;-84
2024/01/06 08:09:24;;;;;;;20.35;9.85;;;;;;;2.50;100.00;100825.34;4957384;28;20020;-84
2024/01/06 08:11:49;;;;;;;19.48;9.38;;;;;;;2.57;100.00;100846.81;4961270;28;20518;-84
2024/01/06 08:14:17;;;;;;;19.20;9.32;;;;;;;2.62;100.00;100850.31;4971322;28;20072;-85
2024/01/06 08:16:42;;;;;;;20.50;10.60;;;;;;;2.55;100.00;100857.03;4976087;28;20062;-84
2024/01/06 08:19:10;;;;;;;18.55;8.90;;;;;;;2.59;100.00;100858.78;4977238;28;20026;-85
2024/01/06 08:21:36;;;;;;;19.48;9.23;;;;;;;2.59;100.00;100863.06;4975837;28;20023;-85
2024/01/06 08:24:04;;;;;;;20.58;9.85;;;;;;;2.56;100.00;100871.56;4976287;28;20033;-85
2024/01/06 08:26:30;;;;;;;20.60;9.80;;;;;;;2.57;100.00;100865.63;4976592;28;20030;-85
2024/01/06 08:28:55;;;;;;;21.45;10.30;;;;;;;2.53;100.00;100874.06;4976085;28;20049;-84
2024/01/06 08:31:21;;;;;;;20.73;10.38;;;;;;;2.54;100.00;100877.50;4976936;28;20110;-85
2024/01/06 08:33:46;;;;;;;21.35;9.82;;;;;;;2.54;100.00;100880.03;4974412;28;20043;-83
2024/01/06 08:36:12;;;;;;;20.73;9.38;;;;;;;2.55;100.00;100890.34;4976014;28;20050;-84
2024/01/06 08:38:40;;;;;;;19.98;9.68;;;;;;;2.52;100.00;100884.31;4976067;28;20034;-84
2024/01/06 08:41:08;;;;;;;21.02;10.32;;;;;;;2.49;100.00;100900.47;4975151;28;20494;-84
2024/01/06 08:43:33;;;;;;;20.52;9.90;;;;;;;2.45;100.00;100896.97;4975916;28;20081;-84
2024/01/06 08:46:02;;;;;;;19.00;9.13;;;;;;;2.48;100.00;100901.28;4976453;28;20019;-85
2024/01/06 08:48:27;;;;;;;20.08;9.80;;;;;;;2.46;100.00;100896.16;4975349;28;20360;-83
2024/01/06 08:50:52;;;;;;;19.35;9.23;;;;;;;2.52;100.00;100912.50;4975672;28;20035;-83
2024/01/06 08:53:17;;;;;;;21.40;10.50;;;;;;;2.47;100.00;100915.81;4976067;28;20467;-83
2024/01/06 08:55:43;;;;;;;20.67;10.23;;;;;;;2.50;100.00;100920.13;4975093;28;20077;-82
2024/01/06 08:58:08;;;;;;;19.95;9.52;;;;;;;2.50;100.00;100909.88;4974271;28;20383;-82
2024/01/06 09:00:33;;;;;;;19.48;9.20;;;;;;;2.52;100.00;100931.28;4975192;28;20479;-82
2024/01/06 09:02:59;;;;;;;19.48;9.50;;;;;;;2.47;100.00;100928.63;4974643;28;20023;-81
2024/01/06 09:05:25;;;;;;;20.10;9.23;;;;;;;2.49;100.00;100938.03;4975610;28;20026;-82
2024/01/06 09:07:50;;;;;;;19.27;8.65;;;;;;;2.47;100.00;100930.34;4975295;28;20124;-81
2024/01/06 09:12:43;;;;;;;21.52;9.80;;;;;;;2.52;100.00;100945.78;4973657;28;20050;-81
2024/01/06 09:15:09;;;;;;;20.52;9.65;;;;;;;2.51;100.00;100944.91;4974949;28;20487;-81
2024/01/06 09:17:34;;;;;;;20.70;10.25;;;;;;;2.56;100.00;100948.44;4973934;28;20105;-81
2024/01/06 09:20:00;;;;;;;18.80;8.70;;;;;;;2.54;100.00;100952.66;4975122;28;20171;-82
2024/01/06 09:22:25;;;;;;;20.83;10.23;;;;;;;2.49;100.00;100956.81;4975365;28;20088;-81
2024/01/06 09:24:50;;;;;;;19.10;9.25;;;;;;;2.51;100.00;100955.16;4974144;28;20034;-81
2024/01/06 09:27:19;;;;;;;19.08;9.27;;;;;;;2.55;100.00;100964.66;4977532;28;20102;-82
2024/01/06 09:29:45;;;;;;;19.27;9.38;;;;;;;2.48;100.00;100967.91;4993766;28;20176;-81
2024/01/06 09:32:10;;;;;;;18.70;9.45;;;;;;;2.49;100.00;100972.19;4994113;28;20022;-82
2024/01/06 09:34:35;;;;;;;20.42;9.48;;;;;;;2.48;100.00;100970.47;4994156;28;20030;-82
2024/01/06 09:37:00;;;;;;;20.63;10.00;;;;;;;2.54;100.00;100974.84;4994004;28;20034;-82
2024/01/06 09:39:27;;;;;;;17.40;8.57;;;;;;;2.58;100.00;100984.34;4993701;28;20129;-81
2024/01/06 09:41:52;;;;;;;17.80;8.55;;;;;;;2.57;100.00;100982.59;4993923;28;20058;-81
2024/01/06 09:44:21;;;;;;;18.88;9.55;;;;;;;2.53;100.00;100989.38;4993685;28;20054;-82
2024/01/06 09:46:47;;;;;;;20.25;10.18;;;;;;;2.55;100.00;100994.50;4994405;28;20034;-82
2024/01/06 09:49:14;;;;;;;20.40;9.90;;;;;;;2.45;100.00;100996.03;4994356;28;20050;-81
2024/01/06 09:51:40;;;;;;;19.75;10.40;;;;;;;2.48;100.00;101006.34;4992780;28;20031;-81
2024/01/06 09:54:09;;;;;;;17.85;9.13;;;;;;;2.51;100.00;101001.28;4993748;28;20371;-82
2024/01/06 09:56:34;;;;;;;17.67;8.70;;;;;;;2.52;100.00;101015.81;4993337;28;20561;-81
2024/01/06 09:58:59;;;;;;;17.88;8.93;;;;;;;2.57;100.00;101021.03;4990837;28;20034;-81
2024/01/06 10:01:25;;;;;;;17.23;8.23;;;;;;;2.63;100.00;101021.19;4993507;23;20495;-82
2024/01/06 10:03:50;;;;;;;16.48;7.63;;;;;;;2.69;100.00;101025.56;4974233;28;20370;-82
2024/01/06 10:06:17;;;;;;;16.48;7.63;;;;;;;2.74;100.00;101026.50;4973787;28;20391;-81
2024/01/06 10:08:54;;;;;;;17.40;8.60;;;;;;;2.70;100.00;101033.28;4973893;28;20062;-81
2024/01/06 10:11:22;;;;;;;17.52;8.40;;;;;;;2.70;100.00;101022.16;4974061;28;20118;-82
2024/01/06 10:13:51;;;;;;;16.90;8.10;;;;;;;2.71;100.00;101031.56;4974497;28;20038;-81
2024/01/06 10:16:17;;;;;;;18.30;9.00;;;;;;;2.67;100.00;101043.44;4974417;28;20027;-81
2024/01/06 10:18:44;;;;;;;19.33;9.35;;;;;;;2.65;100.00;101047.69;4974245;28;20034;-82
2024/01/06 10:21:09;;;;;;;18.90;8.75;;;;;;;2.67;100.00;101051.13;4973430;28;20066;-81
2024/01/06 10:23:36;;;;;;;18.20;8.95;;;;;;;2.68;100.00;101049.47;4974073;28;20057;-81
2024/01/06 10:26:02;;;;;;;17.80;8.63;;;;;;;2.61;100.00;101049.31;4973875;28;20054;-81
2024/01/06 10:28:28;;;;;;;18.48;8.52;;;;;;;2.59;100.00;101050.13;4974827;28;20018;-82
2024/01/06 10:30:56;;;;;;;18.87;8.80;;;;;;;2.58;100.00;101054.41;4988480;28;20109;-81
2024/01/06 10:33:22;;;;;;;;;;;;;;;2.61;100.00;101051.88;4993802;28;20401;-81
2024/01/06 10:35:48;;;;;;;17.23;8.25;;;;;;;2.60;100.00;101052.72;4993358;28;20321;-81
2024/01/06 10:38:15;;;;;;;18.02;8.18;;;;;;;2.68;100.00;101052.03;4993728;28;20023;-81
2024/01/06 10:40:56;;;;;;;16.52;8.20;;;;;;;2.69;100.00;101056.31;4992850;28;20026;-81
2024/01/06 10:43:24;;;;;;;17.52;8.10;;;;;;;2.68;100.00;101055.44;4993918;28;20022;-83
2024/01/06 10:45:51;;;;;;;15.82;7.95;;;;;;;2.72;100.00;101061.50;4993386;28;20026;-82
2024/01/06 10:48:18;;;;;;;18.55;8.68;;;;;;;2.71;100.00;101058.06;4991021;28;20031;-82
2024/01/06 10:50:44;;;;;;;;;;;;;;;2.74;100.00;101070.97;4993815;28;20109;-82
2024/01/06 10:53:11;;;;;;;17.08;7.97;;;;;;;2.68;100.00;101062.28;4993587;28;20004;-82
2024/01/06 10:55:38;;;;;;;17.92;8.45;;;;;;;2.72;100.00;101064.03;4992452;28;20029;-82
2024/01/06 10:58:06;;;;;;;18.00;8.55;;;;;;;2.69;100.00;101059.72;4981743;28;20054;-82
2024/01/06 11:00:31;;;;;;;16.50;7.88;;;;;;;2.73;100.00;101061.53;4973652;28;20113;-82
2024/01/06 11:02:59;;;;;;;15.70;7.68;;;;;;;2.74;100.00;101064.94;4973087;28;20169;-82
2024/01/06 11:05:25;;;;;;;17.30;8.30;;;;;;;2.78;100.00;101072.72;4977459;28;20038;-82
2024/01/06 11:07:54;;;;;;;16.80;8.32;;;;;;;2.72;100.00;101064.94;4977931;28;20030;-82
2024/01/06 11:10:20;;;;;;;17.63;8.20;;;;;;;2.77;100.00;101076.13;4976896;28;20039;-82
2024/01/06 11:13:12;;;;;;;16.27;7.90;;;;;;;2.81;100.00;101082.19;4977358;28;20490;-84
2024/01/06 11:15:49;;;;;;;16.98;7.70;;;;;;;2.82;100.00;101083.06;4976331;28;20042;-82
2024/01/06 11:18:34;;;;;;;17.42;8.07;;;;;;;2.83;100.00;101080.50;4977385;28;20463;-83
2024/01/06 11:21:14;;;;;;;17.92;8.20;;;;;;;2.86;100.00;101083.16;4977220;28;20113;-82
2024/01/06 11:23:43;;;;;;;17.35;7.93;;;;;;;2.77;100.00;101081.25;4976024;28;20035;-83